Time;durP1;ratioP1;P1;durP2;ratioP2;P2;SDS_P1;SDS_P2;PMS_P1;PMS_P2;Temp;Humidity;BMP_temperature;BMP_pressure;BME280_temperature;BME280_humidity;BME280_pressure;Samples;Min_cycle;Max_cycle;Signal;HPM_P1;HPM_P2
2023/10/06 00:00:50;;;;;;;8.40;3.63;;;14.60;99.90;;;;;;2076746;28;20021;-72
2023/10/06 00:01:50;;;;;;;9.20;3.50;;;14.60;99.90;;;;;;2070286;28;20022;-72
2023/10/06 00:02:51;;;;;;;9.68;3.72;;;14.60;99.90;;;;;;2057481;28;20038;-72
2023/10/06 00:04:06;;;;;;;8.77;3.53;;;14.60;99.90;;;;;;2067854;28;20096;-72
2023/10/06 00:05:11;;;;;;;7.57;4.07;;;14.60;99.90;;;;;;2076492;28;20022;-72
2023/10/06 00:06:15;;;;;;;8.45;3.45;;;14.60;99.90;;;;;;2078108;28;20100;-72
2023/10/06 00:07:17;;;;;;;6.90;3.42;;;14.60;99.90;;;;;;2077272;28;20026;-72
2023/10/06 00:08:20;;;;;;;7.88;3.60;;;14.50;99.90;;;;;;2068148;28;20033;-73
2023/10/06 00:09:27;;;;;;;7.68;4.18;;;14.60;99.90;;;;;;2069852;28;20022;-72
2023/10/06 00:10:28;;;;;;;8.88;3.33;;;14.60;99.90;;;;;;2075936;28;20072;-72
2023/10/06 00:11:31;;;;;;;6.85;3.53;;;14.60;99.90;;;;;;2078139;28;20508;-72
2023/10/06 00:12:31;;;;;;;7.35;3.45;;;14.60;99.90;;;;;;2068706;28;20033;-72
2023/10/06 00:13:33;;;;;;;7.40;3.28;;;14.60;99.90;;;;;;2070995;28;20065;-72
2023/10/06 00:14:40;;;;;;;6.75;3.47;;;14.50;99.90;;;;;;2077531;28;20022;-72
2023/10/06 00:15:43;;;;;;;6.15;3.10;;;14.60;99.90;;;;;;2076726;28;20095;-72
2023/10/06 00:16:44;;;;;;;10.52;4.28;;;14.50;99.90;;;;;;2067742;28;20068;-72
2023/10/06 00:17:49;;;;;;;8.48;3.67;;;14.60;99.90;;;;;;2069274;28;20022;-73
2023/10/06 00:18:52;;;;;;;7.60;3.17;;;14.60;99.90;;;;;;2079238;28;20029;-72
2023/10/06 00:19:55;;;;;;;6.10;3.33;;;14.50;99.90;;;;;;2066520;28;20022;-72
2023/10/06 00:20:57;;;;;;;8.00;3.42;;;14.50;99.90;;;;;;2067175;28;20381;-72
2023/10/06 00:22:08;;;;;;;6.63;3.22;;;14.50;99.90;;;;;;2070360;28;20499;-72
2023/10/06 00:23:30;;;;;;;9.32;3.58;;;14.50;99.90;;;;;;2071270;28;20044;-72
2023/10/06 00:24:31;;;;;;;10.40;3.95;;;14.50;99.90;;;;;;2075422;28;20068;-72
2023/10/06 00:25:35;;;;;;;6.68;3.63;;;14.50;99.90;;;;;;2076429;28;20041;-72
2023/10/06 00:26:37;;;;;;;17.33;3.90;;;14.50;99.90;;;;;;2077105;28;20567;-72
2023/10/06 00:27:38;;;;;;;10.75;3.83;;;14.50;99.90;;;;;;2075126;28;20041;-72
2023/10/06 00:28:39;;;;;;;9.20;3.90;;;14.50;99.90;;;;;;2077314;28;20033;-72
2023/10/06 00:29:44;;;;;;;11.73;3.88;;;14.50;99.90;;;;;;2077881;28;20527;-72
2023/10/06 00:30:47;;;;;;;9.23;3.88;;;14.50;99.90;;;;;;2070362;28;20037;-72
2023/10/06 00:31:48;;;;;;;9.48;4.38;;;14.40;99.90;;;;;;2061298;28;20034;-72
2023/10/06 00:32:49;;;;;;;14.52;4.18;;;14.40;99.90;;;;;;2069462;28;20136;-73
2023/10/06 00:33:50;;;;;;;10.32;4.50;;;14.40;99.90;;;;;;2076766;28;20026;-72
2023/10/06 00:34:55;;;;;;;6.88;3.95;;;14.40;99.90;;;;;;2077048;28;20033;-72
2023/10/06 00:35:56;;;;;;;7.43;3.28;;;14.40;99.90;;;;;;2076026;28;20051;-72
2023/10/06 00:36:57;;;;;;;9.65;3.95;;;14.40;99.90;;;;;;2076772;28;20033;-72
2023/10/06 00:38:12;;;;;;;11.77;3.75;;;14.40;99.90;;;;;;2076738;28;20400;-72
2023/10/06 00:39:17;;;;;;;10.93;4.20;;;14.40;99.90;;;;;;2076296;28;20029;-72
2023/10/06 00:40:22;;;;;;;5.72;3.28;;;14.40;99.90;;;;;;2065699;28;20035;-72
2023/10/06 00:41:28;;;;;;;8.77;4.30;;;14.40;99.90;;;;;;2068747;28;20457;-72
2023/10/06 00:42:29;;;;;;;8.18;3.92;;;14.40;99.90;;;;;;2068017;28;20022;-72
2023/10/06 00:43:36;;;;;;;10.15;3.60;;;14.40;99.90;;;;;;2075735;28;20408;-72
2023/10/06 00:44:39;;;;;;;9.98;4.03;;;14.40;99.90;;;;;;2076813;28;20037;-72
2023/10/06 00:45:40;;;;;;;7.47;3.58;;;14.40;99.90;;;;;;2068666;28;20481;-73
2023/10/06 00:46:43;;;;;;;9.25;3.78;;;14.40;99.90;;;;;;2069113;28;20398;-74
2023/10/06 00:47:43;;;;;;;8.25;3.95;;;14.40;99.90;;;;;;2078485;28;20468;-73
2023/10/06 00:48:45;;;;;;;9.52;4.10;;;14.40;99.90;;;;;;2077749;28;20568;-73
2023/10/06 00:49:46;;;;;;;6.80;3.80;;;14.40;99.90;;;;;;2075780;28;20454;-73
2023/10/06 00:50:48;;;;;;;10.00;4.13;;;14.40;99.90;;;;;;2076385;28;20435;-73
2023/10/06 00:51:49;;;;;;;7.15;3.88;;;14.40;99.90;;;;;;2067887;28;20069;-73
2023/10/06 00:52:50;;;;;;;9.07;4.18;;;14.40;99.90;;;;;;2067932;28;20084;-73
2023/10/06 00:53:56;;;;;;;9.02;4.28;;;14.40;99.90;;;;;;2076558;28;20061;-73
2023/10/06 00:54:56;;;;;;;9.60;4.07;;;14.40;99.90;;;;;;2076619;28;20036;-72
2023/10/06 00:55:59;;;;;;;7.32;3.78;;;14.40;99.90;;;;;;2077446;28;20036;-72
2023/10/06 00:57:08;;;;;;;8.10;4.00;;;14.40;99.90;;;;;;2074861;28;20030;-72
2023/10/06 00:58:11;;;;;;;6.78;3.60;;;14.40;99.90;;;;;;2075621;28;20026;-72
2023/10/06 00:59:12;;;;;;;9.07;3.90;;;14.40;99.90;;;;;;2076327;28;20057;-72
2023/10/06 01:00:21;;;;;;;8.23;3.72;;;14.40;99.90;;;;;;2078731;28;20027;-72
2023/10/06 01:01:22;;;;;;;10.77;4.07;;;14.30;99.90;;;;;;2076444;28;20092;-72
2023/10/06 01:02:23;;;;;;;12.48;3.80;;;14.30;99.90;;;;;;2076438;28;20032;-72
2023/10/06 01:03:25;;;;;;;7.95;4.00;;;14.30;99.90;;;;;;2067241;28;20026;-72
2023/10/06 01:04:26;;;;;;;14.05;3.97;;;14.40;99.90;;;;;;2067562;28;20026;-72
2023/10/06 01:05:31;;;;;;;8.88;4.55;;;14.30;99.90;;;;;;2075900;28;20048;-74
2023/10/06 01:06:35;;;;;;;14.10;4.28;;;14.40;99.90;;;;;;2068387;28;20041;-74
2023/10/06 01:07:36;;;;;;;10.90;4.15;;;14.30;99.90;;;;;;2068197;28;20097;-73
2023/10/06 01:08:36;;;;;;;12.05;4.25;;;14.40;99.90;;;;;;2068005;28;20120;-73
2023/10/06 01:09:37;;;;;;;6.57;3.58;;;14.40;99.90;;;;;;2068040;28;20084;-73
2023/10/06 01:10:39;;;;;;;12.65;4.43;;;14.30;99.90;;;;;;2076225;28;20025;-75
2023/10/06 01:11:45;;;;;;;10.80;4.03;;;14.40;99.90;;;;;;2075223;28;20025;-73
2023/10/06 01:12:51;;;;;;;7.60;3.47;;;14.30;99.90;;;;;;2075891;28;20017;-72
2023/10/06 01:13:56;;;;;;;10.00;4.38;;;14.30;99.90;;;;;;2075529;28;20444;-73
2023/10/06 01:15:05;;;;;;;13.77;4.25;;;14.40;99.90;;;;;;2078591;28;20034;-73
2023/10/06 01:16:11;;;;;;;9.60;3.85;;;14.40;99.90;;;;;;2077410;28;20025;-73
2023/10/06 01:17:17;;;;;;;8.63;3.65;;;14.30;99.90;;;;;;2075629;28;20040;-73
2023/10/06 01:18:20;;;;;;;9.40;3.50;;;14.30;99.90;;;;;;2069588;28;20388;-73
2023/10/06 01:20:36;;;;;;;7.97;3.55;;;14.30;99.90;;;;;;2075270;28;20030;-72
2023/10/06 01:21:40;;;;;;;6.07;3.00;;;14.40;99.90;;;;;;2075641;28;20048;-73
2023/10/06 01:22:41;;;;;;;9.63;3.85;;;14.30;99.90;;;;;;2076872;28;20128;-73
2023/10/06 01:23:42;;;;;;;8.60;4.07;;;14.30;99.90;;;;;;2066521;28;20039;-73
2023/10/06 01:24:42;;;;;;;10.30;3.83;;;14.30;99.90;;;;;;2067293;28;20046;-73
2023/10/06 01:25:46;;;;;;;6.47;3.63;;;14.40;99.90;;;;;;2075194;28;20511;-73
2023/10/06 01:26:49;;;;;;;10.25;4.13;;;14.40;99.90;;;;;;2076369;28;20026;-74
2023/10/06 01:27:50;;;;;;;9.75;4.13;;;14.30;99.90;;;;;;2074757;28;20029;-74
2023/10/06 01:28:51;;;;;;;10.25;4.50;;;14.30;99.90;;;;;;2077185;28;20021;-73
2023/10/06 01:31:29;;;;;;;9.18;4.20;;;14.30;99.90;;;;;;2044251;28;20035;-72
2023/10/06 01:32:30;;;;;;;8.32;4.05;;;14.30;99.90;;;;;;2067147;28;20505;-73
2023/10/06 01:33:31;;;;;;;9.80;3.85;;;14.30;99.90;;;;;;2075040;28;20032;-73
2023/10/06 01:34:39;;;;;;;7.15;3.88;;;14.30;99.90;;;;;;2075598;28;20037;-73
2023/10/06 01:35:42;;;;;;;8.20;3.78;;;14.30;99.90;;;;;;2065304;28;20064;-73
2023/10/06 01:36:42;;;;;;;5.90;3.38;;;14.30;99.90;;;;;;2066173;28;20030;-73
2023/10/06 01:37:44;;;;;;;8.65;3.78;;;14.30;99.90;;;;;;2076192;28;20528;-74
2023/10/06 01:38:45;;;;;;;11.48;4.43;;;14.30;99.90;;;;;;2075040;28;20175;-73
2023/10/06 01:39:48;;;;;;;7.13;3.33;;;14.30;99.90;;;;;;2076583;28;20033;-74
2023/10/06 01:40:53;;;;;;;10.65;4.28;;;14.30;99.90;;;;;;2068740;28;20030;-73
2023/10/06 01:41:53;;;;;;;9.02;3.70;;;14.30;99.90;;;;;;2062193;28;20521;-73
2023/10/06 01:42:54;;;;;;;10.00;3.85;;;14.30;99.90;;;;;;2061926;28;20109;-73
2023/10/06 01:43:55;;;;;;;11.25;4.43;;;14.30;99.90;;;;;;2069504;28;20025;-73
2023/10/06 01:45:03;;;;;;;12.50;4.18;;;14.30;99.90;;;;;;2075359;28;20026;-74
2023/10/06 01:46:07;;;;;;;6.85;4.13;;;14.30;99.90;;;;;;2076820;28;20018;-73
2023/10/06 01:47:07;;;;;;;11.48;4.35;;;14.30;99.90;;;;;;2076264;28;20073;-73
2023/10/06 01:49:15;;;;;;;9.90;3.65;;;14.30;99.90;;;;;;2077009;28;20071;-73
2023/10/06 01:50:17;;;;;;;12.10;3.92;;;14.30;99.90;;;;;;2076539;28;20030;-73
2023/10/06 01:51:17;;;;;;;9.85;4.60;;;14.30;99.90;;;;;;2075609;28;20010;-73
2023/10/06 01:52:19;;;;;;;9.18;4.00;;;14.30;99.90;;;;;;2076385;28;20026;-74
2023/10/06 01:53:19;;;;;;;5.47;3.47;;;14.30;99.90;;;;;;2076646;28;20033;-75
2023/10/06 01:54:25;;;;;;;7.78;3.92;;;14.30;99.90;;;;;;2068719;28;20112;-73
2023/10/06 01:55:26;;;;;;;8.98;4.05;;;14.30;99.90;;;;;;2069096;28;20117;-74
2023/10/06 01:56:27;;;;;;;7.60;3.65;;;14.30;99.90;;;;;;2073894;28;20033;-73
2023/10/06 01:57:27;;;;;;;9.57;4.05;;;14.30;99.90;;;;;;2067548;28;20037;-73
2023/10/06 01:58:28;;;;;;;5.93;3.50;;;14.30;99.90;;;;;;2062203;28;20081;-73
2023/10/06 01:59:30;;;;;;;9.38;3.95;;;14.30;99.90;;;;;;2069694;28;20212;-74
2023/10/06 02:00:35;;;;;;;11.15;3.92;;;14.30;99.90;;;;;;2074882;28;20038;-73
2023/10/06 02:01:39;;;;;;;10.02;3.63;;;14.30;99.90;;;;;;2077709;28;20025;-73
2023/10/06 02:02:40;;;;;;;8.95;4.10;;;14.30;99.90;;;;;;2075766;28;20029;-74
2023/10/06 02:03:40;;;;;;;7.57;3.70;;;14.30;99.90;;;;;;2075208;28;20049;-73
2023/10/06 02:04:45;;;;;;;7.60;4.07;;;14.30;99.90;;;;;;2076066;28;20060;-73
2023/10/06 02:05:45;;;;;;;9.30;4.38;;;14.30;99.90;;;;;;2077030;28;20017;-73
2023/10/06 02:06:48;;;;;;;9.18;4.20;;;14.20;99.90;;;;;;2074909;28;20082;-73
2023/10/06 02:07:48;;;;;;;12.10;4.65;;;14.30;99.90;;;;;;2075631;28;20116;-74
2023/10/06 02:08:52;;;;;;;8.13;3.45;;;14.30;99.90;;;;;;2075605;28;20029;-73
2023/10/06 02:09:53;;;;;;;7.20;3.42;;;14.20;99.90;;;;;;2075077;28;20500;-73
2023/10/06 02:10:55;;;;;;;12.00;3.92;;;14.30;99.90;;;;;;2077539;28;20370;-73
2023/10/06 02:11:55;;;;;;;5.88;3.60;;;14.20;99.90;;;;;;2067441;28;20038;-73
2023/10/06 02:12:56;;;;;;;8.70;3.70;;;14.20;99.90;;;;;;2060410;28;20057;-73
2023/10/06 02:13:57;;;;;;;6.57;3.35;;;14.30;99.90;;;;;;2069909;28;20026;-73
2023/10/06 02:14:58;;;;;;;9.90;4.05;;;14.30;99.90;;;;;;2069009;28;20038;-72
2023/10/06 02:15:59;;;;;;;11.93;4.15;;;14.20;99.90;;;;;;2077264;28;20034;-72
2023/10/06 02:17:05;;;;;;;11.23;3.65;;;14.30;99.90;;;;;;2076078;28;20084;-72
2023/10/06 02:18:12;;;;;;;9.02;3.47;;;14.20;99.90;;;;;;2074979;28;20048;-72
2023/10/06 02:19:16;;;;;;;7.85;3.58;;;14.30;99.90;;;;;;2073125;28;20033;-72
2023/10/06 02:21:29;;;;;;;7.13;3.25;;;14.30;99.90;;;;;;2075725;28;20030;-72
2023/10/06 02:22:30;;;;;;;8.60;3.60;;;14.30;99.90;;;;;;2075396;28;21406;-72
2023/10/06 02:23:32;;;;;;;10.25;4.18;;;14.30;99.90;;;;;;2075894;28;20128;-72
2023/10/06 02:24:36;;;;;;;9.27;3.55;;;14.30;99.90;;;;;;2075034;28;20022;-73
2023/10/06 02:25:37;;;;;;;7.80;3.75;;;14.20;99.90;;;;;;2075050;28;20105;-72
2023/10/06 02:26:37;;;;;;;9.32;3.78;;;14.30;99.90;;;;;;2075128;28;20026;-72
2023/10/06 02:27:44;;;;;;;10.30;3.53;;;14.30;99.90;;;;;;2076209;28;20063;-72
2023/10/06 02:28:50;;;;;;;13.20;3.88;;;14.30;99.90;;;;;;2075700;28;20105;-72
2023/10/06 02:29:52;;;;;;;8.50;4.00;;;14.20;99.90;;;;;;2067923;28;20677;-72
2023/10/06 02:30:55;;;;;;;7.88;3.88;;;14.30;99.90;;;;;;2065356;28;20065;-72
2023/10/06 02:32:01;;;;;;;9.25;4.30;;;14.30;99.90;;;;;;2075210;28;20061;-72
2023/10/06 02:33:01;;;;;;;7.47;3.70;;;14.30;99.90;;;;;;2077186;28;20033;-72
2023/10/06 02:34:04;;;;;;;8.13;3.97;;;14.20;99.90;;;;;;2075061;28;20037;-73
2023/10/06 02:35:07;;;;;;;12.20;4.18;;;14.30;99.90;;;;;;2067307;28;20447;-72
2023/10/06 02:36:23;;;;;;;9.02;3.83;;;14.30;99.90;;;;;;2060161;28;20053;-72
2023/10/06 02:37:25;;;;;;;8.23;3.90;;;14.30;99.90;;;;;;2071122;28;20507;-72
2023/10/06 02:38:37;;;;;;;8.20;4.10;;;14.20;99.90;;;;;;2076284;28;20029;-73
2023/10/06 02:39:43;;;;;;;7.72;4.00;;;14.20;99.90;;;;;;2066909;28;20072;-72
2023/10/06 02:40:47;;;;;;;12.40;4.00;;;14.20;99.90;;;;;;2064735;28;20025;-72
2023/10/06 02:41:49;;;;;;;10.45;3.88;;;14.20;99.90;;;;;;2076042;28;20445;-72
2023/10/06 02:42:53;;;;;;;6.70;3.88;;;14.20;99.90;;;;;;2076378;28;20439;-73
2023/10/06 02:43:54;;;;;;;7.28;4.07;;;14.20;99.90;;;;;;2076385;28;20570;-72
2023/10/06 02:44:55;;;;;;;8.00;3.80;;;14.20;99.90;;;;;;2076328;28;20026;-72
2023/10/06 02:46:03;;;;;;;11.82;4.28;;;14.20;99.90;;;;;;2076356;28;20026;-72
2023/10/06 02:47:11;;;;;;;7.65;4.18;;;14.20;99.90;;;;;;2075243;28;20667;-73
2023/10/06 02:48:16;;;;;;;8.65;4.03;;;14.20;99.90;;;;;;2076708;28;20030;-73
2023/10/06 02:49:24;;;;;;;6.78;3.55;;;14.20;99.90;;;;;;2078032;28;20037;-72
2023/10/06 02:50:25;;;;;;;6.78;3.50;;;14.20;99.90;;;;;;2077784;28;20121;-72
2023/10/06 02:51:29;;;;;;;8.80;3.85;;;14.20;99.90;;;;;;2077455;28;20032;-72
2023/10/06 02:52:37;;;;;;;7.72;4.35;;;14.20;99.90;;;;;;2076752;28;20040;-72
2023/10/06 02:53:37;;;;;;;11.18;3.92;;;14.20;99.90;;;;;;2075606;28;20025;-72
2023/10/06 02:54:44;;;;;;;8.73;3.22;;;14.20;99.90;;;;;;2067356;28;20061;-72
2023/10/06 02:55:45;;;;;;;9.27;3.88;;;14.20;99.90;;;;;;2070268;28;20061;-72
2023/10/06 02:56:47;;;;;;;12.15;4.72;;;14.20;99.90;;;;;;2076375;28;20072;-72
2023/10/06 02:57:55;;;;;;;8.27;3.78;;;14.20;99.90;;;;;;2076813;28;20179;-72
2023/10/06 02:59:07;;;;;;;8.30;3.67;;;14.20;99.90;;;;;;2078088;28;20520;-72
2023/10/06 03:01:23;;;;;;;13.75;4.53;;;14.20;99.90;;;;;;2076472;28;20033;-72
2023/10/06 03:02:26;;;;;;;6.68;3.47;;;14.20;99.90;;;;;;2076708;28;20473;-72
2023/10/06 03:03:27;;;;;;;7.85;3.47;;;14.10;99.90;;;;;;2068240;28;20384;-72
2023/10/06 03:04:28;;;;;;;6.20;3.30;;;14.10;99.90;;;;;;2068826;28;20072;-72
2023/10/06 03:05:32;;;;;;;10.13;4.28;;;14.10;99.90;;;;;;2068509;28;20030;-72
2023/10/06 03:06:33;;;;;;;6.78;3.90;;;14.20;99.90;;;;;;2069074;28;20481;-72
2023/10/06 03:07:34;;;;;;;7.47;3.45;;;14.20;99.90;;;;;;2076449;28;20424;-73
2023/10/06 03:08:37;;;;;;;7.13;3.78;;;14.20;99.90;;;;;;2076293;28;20101;-72
2023/10/06 03:09:38;;;;;;;9.05;3.97;;;14.20;99.90;;;;;;2077725;28;20096;-72
2023/10/06 03:10:43;;;;;;;7.78;3.90;;;14.20;99.90;;;;;;2077661;28;20022;-72
2023/10/06 03:11:49;;;;;;;7.80;3.72;;;14.20;99.90;;;;;;2077879;28;20101;-72
2023/10/06 03:12:49;;;;;;;8.65;3.55;;;14.20;99.90;;;;;;2077663;28;20027;-72
2023/10/06 03:13:52;;;;;;;8.07;4.03;;;14.20;99.90;;;;;;2077901;28;20045;-71
2023/10/06 03:15:01;;;;;;;8.32;3.85;;;14.10;99.90;;;;;;2076590;28;20028;-72
2023/10/06 03:16:02;;;;;;;9.52;4.20;;;14.20;99.90;;;;;;2077227;28;20376;-72
2023/10/06 03:17:04;;;;;;;7.85;3.38;;;14.10;99.90;;;;;;2078902;28;20099;-72
2023/10/06 03:18:05;;;;;;;6.20;3.38;;;14.10;99.90;;;;;;2076275;28;20038;-72
2023/10/06 03:19:07;;;;;;;6.65;3.50;;;14.10;99.90;;;;;;2078679;28;20030;-72
2023/10/06 03:20:11;;;;;;;8.10;3.58;;;14.10;99.90;;;;;;2078632;28;20025;-72
2023/10/06 03:22:13;;;;;;;12.98;4.00;;;14.10;99.90;;;;;;2076455;28;20108;-72
2023/10/06 03:24:30;;;;;;;;;;;14.10;99.90;;;;;;2076504;28;20025;-72
2023/10/06 03:25:35;;;;;;;8.95;3.75;;;14.00;99.90;;;;;;2075265;28;19906;-71
2023/10/06 03:26:36;;;;;;;9.50;3.65;;;14.10;99.90;;;;;;2070435;28;20052;-72
2023/10/06 03:27:38;;;;;;;7.53;3.50;;;14.10;99.90;;;;;;2069541;28;20037;-72
2023/10/06 03:28:43;;;;;;;6.05;4.03;;;14.10;99.90;;;;;;2076777;28;20425;-71
2023/10/06 03:29:53;;;;;;;10.15;4.05;;;14.10;99.90;;;;;;2076278;28;20108;-72
2023/10/06 03:30:54;;;;;;;8.13;3.40;;;14.10;99.90;;;;;;2077529;28;20033;-72
2023/10/06 03:31:56;;;;;;;8.75;3.70;;;14.10;99.90;;;;;;2077618;28;20022;-72
2023/10/06 03:32:58;;;;;;;11.95;3.90;;;14.10;99.90;;;;;;2064419;28;20030;-72
2023/10/06 03:33:58;;;;;;;9.10;4.03;;;14.10;99.90;;;;;;2069046;28;20021;-72
2023/10/06 03:35:11;;;;;;;7.05;3.60;;;14.10;99.90;;;;;;2070164;28;20033;-73
2023/10/06 03:36:15;;;;;;;9.52;3.88;;;14.10;99.90;;;;;;2074844;28;20630;-72
2023/10/06 03:37:34;;;;;;;11.65;4.22;;;14.10;99.90;;;;;;2070000;28;20556;-74
2023/10/06 03:38:36;;;;;;;7.32;3.40;;;14.10;99.90;;;;;;2070294;28;20468;-72
2023/10/06 03:39:50;;;;;;;10.48;3.53;;;14.10;99.90;;;;;;2078103;28;20026;-72
2023/10/06 03:42:01;;;;;;;7.95;3.72;;;14.10;99.90;;;;;;2074737;28;20478;-72
2023/10/06 03:43:05;;;;;;;9.80;3.83;;;14.10;99.90;;;;;;2076796;28;20029;-72
2023/10/06 03:44:06;;;;;;;8.77;3.33;;;14.00;99.90;;;;;;2069866;28;20121;-72
2023/10/06 03:45:18;;;;;;;9.35;3.97;;;14.10;99.90;;;;;;2068638;28;20026;-72
2023/10/06 03:46:20;;;;;;;11.00;4.15;;;14.00;99.90;;;;;;2076891;28;20033;-71
2023/10/06 03:47:20;;;;;;;8.32;3.45;;;14.00;99.90;;;;;;2077527;28;20029;-72
2023/10/06 03:48:24;;;;;;;9.40;3.78;;;14.00;99.90;;;;;;2075414;28;20079;-72
2023/10/06 03:49:26;;;;;;;6.47;3.55;;;14.00;99.90;;;;;;2076052;28;20029;-72
2023/10/06 03:50:27;;;;;;;10.38;4.25;;;14.00;99.90;;;;;;2077501;28;20464;-72
2023/10/06 03:51:29;;;;;;;9.88;3.60;;;14.10;99.90;;;;;;2077547;28;20029;-72
2023/10/06 03:52:30;;;;;;;8.32;3.65;;;14.00;99.90;;;;;;2066839;28;20073;-72
2023/10/06 03:53:30;;;;;;;9.65;4.10;;;14.10;99.90;;;;;;2069257;28;20025;-72
2023/10/06 03:54:31;;;;;;;7.20;3.35;;;14.10;99.90;;;;;;2078117;28;20044;-72
2023/10/06 03:55:31;;;;;;;6.85;3.72;;;14.10;99.90;;;;;;2075460;28;20021;-72
2023/10/06 03:56:32;;;;;;;9.90;4.25;;;14.10;99.90;;;;;;2077026;28;20822;-72
2023/10/06 03:57:33;;;;;;;6.75;3.63;;;14.10;99.90;;;;;;2078284;28;20080;-72
2023/10/06 03:58:33;;;;;;;8.07;3.63;;;14.10;99.90;;;;;;2075152;28;20021;-72
2023/10/06 03:59:34;;;;;;;9.95;3.45;;;14.10;99.90;;;;;;2077115;28;20025;-72
2023/10/06 04:00:47;;;;;;;8.38;3.80;;;14.10;99.90;;;;;;2078400;28;20112;-72
2023/10/06 04:01:48;;;;;;;12.48;3.72;;;14.10;99.90;;;;;;2078926;28;20021;-72
2023/10/06 04:02:48;;;;;;;7.03;4.00;;;14.10;99.90;;;;;;2077921;28;20032;-72
2023/10/06 04:03:49;;;;;;;9.77;3.55;;;14.00;99.90;;;;;;2077510;28;20029;-72
2023/10/06 04:04:49;;;;;;;7.25;3.03;;;14.00;99.90;;;;;;2078019;28;20025;-72
2023/10/06 04:05:51;;;;;;;7.35;3.45;;;14.00;99.90;;;;;;2077050;28;20059;-72
2023/10/06 04:06:56;;;;;;;8.60;3.60;;;14.10;99.90;;;;;;2077810;28;20033;-72
2023/10/06 04:07:57;;;;;;;8.57;3.50;;;14.10;99.90;;;;;;2077459;28;20377;-72
2023/10/06 04:08:59;;;;;;;10.02;3.85;;;14.00;99.90;;;;;;2077520;28;20125;-72
2023/10/06 04:10:07;;;;;;;6.95;3.45;;;14.00;99.90;;;;;;2076043;28;20033;-72
2023/10/06 04:11:08;;;;;;;8.68;3.50;;;14.00;99.90;;;;;;2076922;28;20044;-72
2023/10/06 04:12:08;;;;;;;8.30;3.58;;;14.00;99.90;;;;;;2077859;28;20025;-71
2023/10/06 04:13:10;;;;;;;7.53;3.72;;;14.00;99.90;;;;;;2076112;28;20684;-73
2023/10/06 04:14:11;;;;;;;7.93;3.75;;;14.00;99.90;;;;;;2077007;28;20034;-72
2023/10/06 04:15:14;;;;;;;6.57;3.10;;;14.00;99.90;;;;;;2076231;28;20036;-72
2023/10/06 04:16:14;;;;;;;10.68;4.10;;;14.00;99.90;;;;;;2077778;28;20022;-72
2023/10/06 04:17:16;;;;;;;7.40;3.85;;;14.00;99.90;;;;;;2076309;28;20858;-72
2023/10/06 04:18:19;;;;;;;7.43;3.78;;;14.00;99.90;;;;;;2076534;28;20138;-71
2023/10/06 04:19:19;;;;;;;7.82;3.60;;;14.00;99.90;;;;;;2077328;28;20026;-72
2023/10/06 04:20:20;;;;;;;9.07;2.70;;;13.90;99.90;;;;;;2078680;28;20022;-72
2023/10/06 04:21:20;;;;;;;7.93;3.55;;;14.00;99.90;;;;;;2078089;28;20036;-72
2023/10/06 04:22:21;;;;;;;7.95;3.13;;;13.90;99.90;;;;;;2076967;28;20060;-72
2023/10/06 04:23:23;;;;;;;7.95;3.78;;;13.90;99.90;;;;;;2078435;28;20026;-72
2023/10/06 04:24:23;;;;;;;8.77;3.70;;;13.90;99.90;;;;;;2078050;28;20071;-72
2023/10/06 04:25:24;;;;;;;8.30;3.42;;;14.00;99.90;;;;;;2068534;28;20029;-72
2023/10/06 04:26:24;;;;;;;10.35;3.50;;;14.00;99.90;;;;;;2060729;28;20046;-72
2023/10/06 04:27:26;;;;;;;8.75;3.72;;;13.90;99.90;;;;;;2071384;28;20706;-72
2023/10/06 04:28:27;;;;;;;7.55;3.35;;;13.90;99.90;;;;;;2068070;28;20479;-72
2023/10/06 04:29:34;;;;;;;14.93;4.20;;;14.00;99.90;;;;;;2069634;28;20029;-72
2023/10/06 04:30:38;;;;;;;12.27;4.68;;;14.00;99.90;;;;;;2077079;28;20472;-72
2023/10/06 04:31:39;;;;;;;8.05;3.85;;;13.90;99.90;;;;;;2076344;28;20885;-72
2023/10/06 04:32:39;;;;;;;7.03;3.63;;;13.90;99.90;;;;;;2078157;28;20527;-71
2023/10/06 04:33:40;;;;;;;6.90;3.30;;;13.90;99.90;;;;;;2076660;28;20101;-72
2023/10/06 04:34:41;;;;;;;6.60;3.20;;;13.90;99.90;;;;;;2076854;28;20406;-72
2023/10/06 04:35:52;;;;;;;7.97;3.65;;;13.90;99.90;;;;;;2077302;28;20052;-72
2023/10/06 04:36:56;;;;;;;8.43;3.20;;;13.90;99.90;;;;;;2077200;28;20424;-72
2023/10/06 04:37:57;;;;;;;10.15;3.85;;;13.90;99.90;;;;;;2076492;28;20029;-72
2023/10/06 04:38:58;;;;;;;9.23;3.38;;;13.90;99.90;;;;;;2078237;28;20056;-72
2023/10/06 04:39:58;;;;;;;7.63;4.03;;;13.90;99.90;;;;;;2075638;28;20468;-72
2023/10/06 04:40:59;;;;;;;9.82;3.47;;;13.90;99.90;;;;;;2076393;28;20018;-72
2023/10/06 04:42:00;;;;;;;11.60;3.65;;;13.90;99.90;;;;;;2077073;28;20049;-72
2023/10/06 04:43:00;;;;;;;6.63;3.60;;;13.90;99.90;;;;;;2076445;28;20026;-72
2023/10/06 04:44:02;;;;;;;11.77;4.40;;;13.90;99.90;;;;;;2076589;28;20025;-72
2023/10/06 04:45:06;;;;;;;10.07;4.03;;;13.90;99.90;;;;;;2076018;28;20033;-72
2023/10/06 04:46:07;;;;;;;6.57;3.75;;;13.90;99.90;;;;;;2076324;28;20033;-72
2023/10/06 04:47:09;;;;;;;12.18;4.43;;;13.90;99.90;;;;;;2077094;28;20052;-72
2023/10/06 04:48:09;;;;;;;6.55;3.35;;;13.90;99.90;;;;;;2075084;28;20022;-72
2023/10/06 04:49:11;;;;;;;7.30;3.92;;;13.90;99.90;;;;;;2076196;28;20033;-72
2023/10/06 04:50:12;;;;;;;7.88;3.33;;;13.90;99.90;;;;;;2072014;28;20033;-72
2023/10/06 04:51:13;;;;;;;7.03;3.58;;;13.90;99.90;;;;;;2071064;28;20045;-72
2023/10/06 04:52:14;;;;;;;7.50;3.90;;;13.90;99.90;;;;;;2076015;28;20031;-72
2023/10/06 04:53:16;;;;;;;9.35;3.47;;;13.90;99.90;;;;;;2074503;28;20044;-71
2023/10/06 04:54:17;;;;;;;10.88;3.35;;;13.90;99.90;;;;;;2075900;28;20034;-72
2023/10/06 04:55:19;;;;;;;10.00;3.88;;;13.90;99.90;;;;;;2076756;28;20037;-72
2023/10/06 04:56:19;;;;;;;7.93;3.38;;;13.90;99.90;;;;;;2076380;28;20160;-72
2023/10/06 04:57:20;;;;;;;7.55;3.35;;;13.90;99.90;;;;;;2074899;28;20100;-72
2023/10/06 04:58:21;;;;;;;6.00;3.53;;;13.90;99.90;;;;;;2077161;28;20030;-73
2023/10/06 04:59:22;;;;;;;11.88;4.32;;;13.90;99.90;;;;;;2077211;28;20029;-72
2023/10/06 05:00:27;;;;;;;8.82;3.75;;;13.90;99.90;;;;;;2077897;28;20025;-72
2023/10/06 05:01:30;;;;;;;9.50;4.35;;;13.90;99.90;;;;;;2076704;28;20036;-72
2023/10/06 05:02:34;;;;;;;7.88;3.60;;;13.90;99.90;;;;;;2071244;28;20064;-72
2023/10/06 05:03:43;;;;;;;9.05;4.15;;;13.90;99.90;;;;;;2071637;28;20029;-72
2023/10/06 05:04:43;;;;;;;10.00;4.37;;;13.90;99.90;;;;;;2076139;28;20042;-73
2023/10/06 05:05:44;;;;;;;7.40;3.30;;;13.90;99.90;;;;;;2076227;28;20767;-72
2023/10/06 05:06:45;;;;;;;7.68;3.60;;;13.90;99.90;;;;;;2075075;28;20129;-72
2023/10/06 05:07:50;;;;;;;8.35;3.88;;;13.90;99.90;;;;;;2076538;28;20040;-72
2023/10/06 05:08:51;;;;;;;8.38;3.30;;;13.90;99.90;;;;;;2076619;28;20396;-72
2023/10/06 05:09:55;;;;;;;7.43;4.03;;;13.90;99.90;;;;;;2076971;28;20108;-72
2023/10/06 05:10:56;;;;;;;7.03;3.35;;;13.90;99.90;;;;;;2075232;28;20480;-72
2023/10/06 05:11:57;;;;;;;7.78;3.58;;;13.90;99.90;;;;;;2077553;28;20380;-72
2023/10/06 05:13:06;;;;;;;8.10;3.88;;;13.90;99.90;;;;;;2075267;28;20025;-72
2023/10/06 05:14:08;;;;;;;10.95;4.38;;;13.90;99.90;;;;;;2076546;28;20026;-72
2023/10/06 05:15:14;;;;;;;6.65;3.40;;;13.90;99.90;;;;;;2067632;28;20034;-73
2023/10/06 05:16:15;;;;;;;6.85;3.42;;;13.90;99.90;;;;;;2062925;28;20041;-74
2023/10/06 05:17:16;;;;;;;9.00;3.95;;;13.90;99.90;;;;;;2070213;28;20044;-72
2023/10/06 05:18:17;;;;;;;8.65;3.10;;;13.90;99.90;;;;;;2075308;28;20021;-72
2023/10/06 05:19:17;;;;;;;7.30;3.63;;;13.80;99.90;;;;;;2075618;28;20036;-72
2023/10/06 05:20:20;;;;;;;9.07;3.90;;;13.80;99.90;;;;;;2076775;28;20026;-72
2023/10/06 05:21:21;;;;;;;6.70;3.17;;;13.80;99.90;;;;;;2077263;28;20496;-72
2023/10/06 05:22:21;;;;;;;9.85;3.63;;;13.80;99.90;;;;;;2075754;28;20407;-72
2023/10/06 05:23:22;;;;;;;8.18;4.18;;;13.80;99.90;;;;;;2077705;28;20021;-72
2023/10/06 05:24:22;;;;;;;7.15;3.92;;;13.80;99.90;;;;;;2077654;28;20038;-73
2023/10/06 05:25:25;;;;;;;7.32;3.38;;;13.80;99.90;;;;;;2078390;28;20112;-72
2023/10/06 05:26:27;;;;;;;7.28;3.97;;;13.80;99.90;;;;;;2075296;28;20030;-71
2023/10/06 05:27:28;;;;;;;6.95;3.80;;;13.80;99.90;;;;;;2077256;28;20116;-72
2023/10/06 05:28:29;;;;;;;8.35;3.65;;;13.80;99.90;;;;;;2078225;28;20033;-72
2023/10/06 05:29:30;;;;;;;12.23;4.85;;;13.80;99.90;;;;;;2075864;28;20022;-72
2023/10/06 05:30:31;;;;;;;6.80;3.33;;;13.80;99.90;;;;;;2077363;28;20041;-72
2023/10/06 05:31:33;;;;;;;6.50;3.25;;;13.80;99.90;;;;;;2072352;28;20034;-71
2023/10/06 05:32:35;;;;;;;7.28;3.60;;;13.80;99.90;;;;;;2070121;28;20025;-72
2023/10/06 05:33:35;;;;;;;5.05;3.05;;;13.80;99.90;;;;;;2075263;28;20057;-72
2023/10/06 05:34:40;;;;;;;9.05;3.95;;;13.80;99.90;;;;;;2075639;28;20029;-72
2023/10/06 05:35:41;;;;;;;7.93;3.10;;;13.80;99.90;;;;;;2069766;28;20050;-72
2023/10/06 05:36:41;;;;;;;9.52;4.00;;;13.80;99.90;;;;;;2063057;28;20018;-72